<?xml version="1.0" encoding="UTF-8" standalone="no" ?>
<gpx xmlns="http://www.topografix.com/GPX/1/1" xmlns:xsi="http://www.w3.org/2001/XMLSchema-instance" xsi:schemaLocation="http://www.topografix.com/GPX/1/1 http://www.topografix.com/GPX/1/1/gpx.xsd" version="1.1" creator="VisuGPX - https://www.visugpx.com">
  <metadata>
    <name>Grain de folie</name>
    <desc><![CDATA[Rando nocture]]></desc>
  </metadata>
  <wpt lat="48.39711" lon="7.26786">
    <ele>1080.58</ele>
    <name><![CDATA[]]></name>
    <desc><![CDATA[]]></desc>
    <type><![CDATA[Point de navigation]]></type>
  </wpt>
  <trk>
    <name><![CDATA[2015-12-17 18:06]]></name>
    <desc><![CDATA[<h1>OruxMaps</h1><br /><hr align="center" width="480" style="height: 2px; width: 517px"/><h2>Nom: 2015-12-17 18:06</h2><br /><p>Temps de départ: 12/17/2015 18:06</p><p>Temps d'arrivée: 12/17/2015 22:08</p><p>Distance: 4km (04:01)</p><p>Temps déplacement: 01:23</p><p>Vitesse moyenne: 1km/h</p><p>Vitesse moyenne: 2,9km/h</p><p>Vitess Max.: 15,1km/h</p><p>Altitude minimale: 1002m</p><p>Altitude maximale: 1107m</p><p>Vitesse d'élévation: 69,6m/h</p><p>Vitesse de descente: -233,7m/h</p><p>Gain Altitude: 214m</p><p>Perte Altitude: -199m</p><p>Temps d'élévation: 03:05</p><p>Temps de descente: 00:51</p><hr align="center" width="480" style="height: 2px; width: 517px"/>]]></desc>
    <trkseg>
      <trkpt lat="48.4067" lon="7.25808">
        <ele>1004.58</ele>
        <time>2015-12-17T17:06:57Z</time>
      </trkpt>
      <trkpt lat="48.40652" lon="7.25804">
        <ele>1002.58</ele>
        <time>2015-12-17T17:07:31Z</time>
      </trkpt>
      <trkpt lat="48.40629" lon="7.2581">
        <ele>1011.07</ele>
        <time>2015-12-17T17:10:38Z</time>
      </trkpt>
      <trkpt lat="48.40609" lon="7.25826">
        <ele>1022.58</ele>
        <time>2015-12-17T17:11:12Z</time>
      </trkpt>
      <trkpt lat="48.40591" lon="7.25833">
        <ele>1028.14</ele>
        <time>2015-12-17T17:11:16Z</time>
      </trkpt>
      <trkpt lat="48.40574" lon="7.25846">
        <ele>1036.96</ele>
        <time>2015-12-17T17:11:22Z</time>
      </trkpt>
      <trkpt lat="48.40556" lon="7.25842">
        <ele>1036.02</ele>
        <time>2015-12-17T17:11:35Z</time>
      </trkpt>
      <trkpt lat="48.40505" lon="7.25848">
        <ele>1036.48</ele>
        <time>2015-12-17T17:12:18Z</time>
      </trkpt>
      <trkpt lat="48.40486" lon="7.25851">
        <ele>1028.22</ele>
        <time>2015-12-17T17:12:47Z</time>
      </trkpt>
      <trkpt lat="48.40467" lon="7.25857">
        <ele>1037.09</ele>
        <time>2015-12-17T17:13:13Z</time>
      </trkpt>
      <trkpt lat="48.40453" lon="7.25838">
        <ele>1032.79</ele>
        <time>2015-12-17T17:13:24Z</time>
      </trkpt>
      <trkpt lat="48.40436" lon="7.25851">
        <ele>1039.35</ele>
        <time>2015-12-17T17:13:41Z</time>
      </trkpt>
      <trkpt lat="48.40423" lon="7.25833">
        <ele>1026.84</ele>
        <time>2015-12-17T17:13:57Z</time>
      </trkpt>
      <trkpt lat="48.40408" lon="7.25814">
        <ele>1028.63</ele>
        <time>2015-12-17T17:14:18Z</time>
      </trkpt>
      <trkpt lat="48.40393" lon="7.25832">
        <ele>1032.04</ele>
        <time>2015-12-17T17:14:32Z</time>
      </trkpt>
      <trkpt lat="48.4038" lon="7.25814">
        <ele>1035.24</ele>
        <time>2015-12-17T17:14:45Z</time>
      </trkpt>
      <trkpt lat="48.40366" lon="7.25794">
        <ele>1029.09</ele>
        <time>2015-12-17T17:15:03Z</time>
      </trkpt>
      <trkpt lat="48.40351" lon="7.25779">
        <ele>1030.97</ele>
        <time>2015-12-17T17:15:17Z</time>
      </trkpt>
      <trkpt lat="48.40336" lon="7.25762">
        <ele>1029.07</ele>
        <time>2015-12-17T17:15:32Z</time>
      </trkpt>
      <trkpt lat="48.40319" lon="7.25749">
        <ele>1038.63</ele>
        <time>2015-12-17T17:15:57Z</time>
      </trkpt>
      <trkpt lat="48.40301" lon="7.25739">
        <ele>1040.39</ele>
        <time>2015-12-17T17:16:17Z</time>
      </trkpt>
      <trkpt lat="48.40266" lon="7.25737">
        <ele>1046.64</ele>
        <time>2015-12-17T17:17:15Z</time>
      </trkpt>
      <trkpt lat="48.40252" lon="7.25718">
        <ele>1058.05</ele>
        <time>2015-12-17T17:19:46Z</time>
      </trkpt>
      <trkpt lat="48.40239" lon="7.25698">
        <ele>1047.93</ele>
        <time>2015-12-17T17:20:19Z</time>
      </trkpt>
      <trkpt lat="48.40226" lon="7.2568">
        <ele>1043.82</ele>
        <time>2015-12-17T17:20:39Z</time>
      </trkpt>
      <trkpt lat="48.40208" lon="7.25675">
        <ele>1043.55</ele>
        <time>2015-12-17T17:21:06Z</time>
      </trkpt>
      <trkpt lat="48.40189" lon="7.25677">
        <ele>1046.05</ele>
        <time>2015-12-17T17:21:22Z</time>
      </trkpt>
      <trkpt lat="48.4017" lon="7.2568">
        <ele>1050.14</ele>
        <time>2015-12-17T17:21:37Z</time>
      </trkpt>
      <trkpt lat="48.4013" lon="7.25672">
        <ele>1062.27</ele>
        <time>2015-12-17T17:22:15Z</time>
      </trkpt>
      <trkpt lat="48.40111" lon="7.25664">
        <ele>1043.33</ele>
        <time>2015-12-17T17:22:53Z</time>
      </trkpt>
      <trkpt lat="48.40095" lon="7.2565">
        <ele>1042.94</ele>
        <time>2015-12-17T17:23:00Z</time>
      </trkpt>
      <trkpt lat="48.40074" lon="7.25648">
        <ele>1043.15</ele>
        <time>2015-12-17T17:23:10Z</time>
      </trkpt>
      <trkpt lat="48.40055" lon="7.2564">
        <ele>1045.57</ele>
        <time>2015-12-17T17:23:26Z</time>
      </trkpt>
      <trkpt lat="48.40036" lon="7.25644">
        <ele>1048.7</ele>
        <time>2015-12-17T17:23:38Z</time>
      </trkpt>
      <trkpt lat="48.40016" lon="7.25639">
        <ele>1042.39</ele>
        <time>2015-12-17T17:23:57Z</time>
      </trkpt>
      <trkpt lat="48.39998" lon="7.25623">
        <ele>1044.63</ele>
        <time>2015-12-17T17:24:12Z</time>
      </trkpt>
      <trkpt lat="48.3998" lon="7.25616">
        <ele>1051.4</ele>
        <time>2015-12-17T17:24:33Z</time>
      </trkpt>
      <trkpt lat="48.39966" lon="7.25598">
        <ele>1049.83</ele>
        <time>2015-12-17T17:24:46Z</time>
      </trkpt>
      <trkpt lat="48.39948" lon="7.25607">
        <ele>1046.7</ele>
        <time>2015-12-17T17:28:16Z</time>
      </trkpt>
      <trkpt lat="48.39927" lon="7.25619">
        <ele>1038.19</ele>
        <time>2015-12-17T17:28:39Z</time>
      </trkpt>
      <trkpt lat="48.39909" lon="7.25628">
        <ele>1032.37</ele>
        <time>2015-12-17T17:28:53Z</time>
      </trkpt>
      <trkpt lat="48.39892" lon="7.2564">
        <ele>1042.61</ele>
        <time>2015-12-17T17:29:14Z</time>
      </trkpt>
      <trkpt lat="48.39874" lon="7.25646">
        <ele>1038.39</ele>
        <time>2015-12-17T17:29:31Z</time>
      </trkpt>
      <trkpt lat="48.39857" lon="7.25657">
        <ele>1039.16</ele>
        <time>2015-12-17T17:29:53Z</time>
      </trkpt>
      <trkpt lat="48.39841" lon="7.2567">
        <ele>1040.24</ele>
        <time>2015-12-17T17:30:26Z</time>
      </trkpt>
      <trkpt lat="48.39825" lon="7.25687">
        <ele>1041.89</ele>
        <time>2015-12-17T17:30:42Z</time>
      </trkpt>
      <trkpt lat="48.39774" lon="7.25701">
        <ele>1049.58</ele>
        <time>2015-12-17T17:33:17Z</time>
      </trkpt>
      <trkpt lat="48.39757" lon="7.25691">
        <ele>1042.32</ele>
        <time>2015-12-17T17:33:46Z</time>
      </trkpt>
      <trkpt lat="48.39741" lon="7.25705">
        <ele>1040.52</ele>
        <time>2015-12-17T17:34:10Z</time>
      </trkpt>
      <trkpt lat="48.39722" lon="7.25719">
        <ele>1032.38</ele>
        <time>2015-12-17T17:34:34Z</time>
      </trkpt>
      <trkpt lat="48.39713" lon="7.25745">
        <ele>1051.6</ele>
        <time>2015-12-17T17:39:18Z</time>
      </trkpt>
      <trkpt lat="48.39704" lon="7.25769">
        <ele>1055.6</ele>
        <time>2015-12-17T17:39:41Z</time>
      </trkpt>
      <trkpt lat="48.397" lon="7.25796">
        <ele>1047.1</ele>
        <time>2015-12-17T17:40:06Z</time>
      </trkpt>
      <trkpt lat="48.39698" lon="7.25823">
        <ele>1043.38</ele>
        <time>2015-12-17T17:40:26Z</time>
      </trkpt>
      <trkpt lat="48.39697" lon="7.25851">
        <ele>1049.77</ele>
        <time>2015-12-17T17:40:45Z</time>
      </trkpt>
      <trkpt lat="48.39693" lon="7.25879">
        <ele>1055.34</ele>
        <time>2015-12-17T17:41:18Z</time>
      </trkpt>
      <trkpt lat="48.39691" lon="7.25907">
        <ele>1055.35</ele>
        <time>2015-12-17T17:41:34Z</time>
      </trkpt>
      <trkpt lat="48.3967" lon="7.26008">
        <ele>1064.04</ele>
        <time>2015-12-17T17:43:01Z</time>
      </trkpt>
      <trkpt lat="48.39675" lon="7.25981">
        <ele>1056.08</ele>
        <time>2015-12-17T17:48:09Z</time>
      </trkpt>
      <trkpt lat="48.39633" lon="7.26044">
        <ele>1038.17</ele>
        <time>2015-12-17T17:52:13Z</time>
      </trkpt>
      <trkpt lat="48.39639" lon="7.26071">
        <ele>1056.95</ele>
        <time>2015-12-17T17:55:33Z</time>
      </trkpt>
      <trkpt lat="48.39634" lon="7.26098">
        <ele>1059.29</ele>
        <time>2015-12-17T17:56:12Z</time>
      </trkpt>
      <trkpt lat="48.3963" lon="7.26125">
        <ele>1056.77</ele>
        <time>2015-12-17T17:56:28Z</time>
      </trkpt>
      <trkpt lat="48.39629" lon="7.26202">
        <ele>1048.91</ele>
        <time>2015-12-17T17:57:15Z</time>
      </trkpt>
      <trkpt lat="48.3961" lon="7.262">
        <ele>1059.27</ele>
        <time>2015-12-17T17:57:23Z</time>
      </trkpt>
      <trkpt lat="48.396" lon="7.26225">
        <ele>1060.94</ele>
        <time>2015-12-17T17:57:43Z</time>
      </trkpt>
      <trkpt lat="48.39584" lon="7.26242">
        <ele>1055.58</ele>
        <time>2015-12-17T17:58:38Z</time>
      </trkpt>
      <trkpt lat="48.3958" lon="7.26268">
        <ele>1056.7</ele>
        <time>2015-12-17T17:58:43Z</time>
      </trkpt>
      <trkpt lat="48.39577" lon="7.26296">
        <ele>1060.59</ele>
        <time>2015-12-17T17:58:55Z</time>
      </trkpt>
      <trkpt lat="48.39575" lon="7.26323">
        <ele>1060.76</ele>
        <time>2015-12-17T17:59:05Z</time>
      </trkpt>
      <trkpt lat="48.39584" lon="7.26348">
        <ele>1068.82</ele>
        <time>2015-12-17T17:59:34Z</time>
      </trkpt>
      <trkpt lat="48.39594" lon="7.26371">
        <ele>1069.62</ele>
        <time>2015-12-17T17:59:53Z</time>
      </trkpt>
      <trkpt lat="48.39601" lon="7.26397">
        <ele>1073.1</ele>
        <time>2015-12-17T18:00:11Z</time>
      </trkpt>
      <trkpt lat="48.39589" lon="7.26421">
        <ele>1074.52</ele>
        <time>2015-12-17T18:05:15Z</time>
      </trkpt>
      <trkpt lat="48.3958" lon="7.26445">
        <ele>1075.6</ele>
        <time>2015-12-17T18:05:41Z</time>
      </trkpt>
      <trkpt lat="48.39574" lon="7.26472">
        <ele>1074.19</ele>
        <time>2015-12-17T18:06:15Z</time>
      </trkpt>
      <trkpt lat="48.39562" lon="7.26495">
        <ele>1070.98</ele>
        <time>2015-12-17T18:06:29Z</time>
      </trkpt>
      <trkpt lat="48.39554" lon="7.26521">
        <ele>1072.01</ele>
        <time>2015-12-17T18:06:48Z</time>
      </trkpt>
      <trkpt lat="48.39546" lon="7.26549">
        <ele>1073.49</ele>
        <time>2015-12-17T18:07:23Z</time>
      </trkpt>
      <trkpt lat="48.39541" lon="7.26576">
        <ele>1075.04</ele>
        <time>2015-12-17T18:07:35Z</time>
      </trkpt>
      <trkpt lat="48.39535" lon="7.26602">
        <ele>1073.67</ele>
        <time>2015-12-17T18:07:48Z</time>
      </trkpt>
      <trkpt lat="48.39527" lon="7.26628">
        <ele>1077.58</ele>
        <time>2015-12-17T18:08:52Z</time>
      </trkpt>
      <trkpt lat="48.39518" lon="7.26652">
        <ele>1073.56</ele>
        <time>2015-12-17T18:09:10Z</time>
      </trkpt>
      <trkpt lat="48.39507" lon="7.2668">
        <ele>1079.14</ele>
        <time>2015-12-17T18:09:25Z</time>
      </trkpt>
      <trkpt lat="48.395" lon="7.26706">
        <ele>1078.82</ele>
        <time>2015-12-17T18:09:55Z</time>
      </trkpt>
      <trkpt lat="48.39488" lon="7.26726">
        <ele>1076.59</ele>
        <time>2015-12-17T18:10:17Z</time>
      </trkpt>
      <trkpt lat="48.39477" lon="7.26781">
        <ele>1092.58</ele>
        <time>2015-12-17T18:19:56Z</time>
      </trkpt>
      <trkpt lat="48.3948" lon="7.26808">
        <ele>1090.28</ele>
        <time>2015-12-17T18:21:07Z</time>
      </trkpt>
      <trkpt lat="48.39475" lon="7.26837">
        <ele>1093.66</ele>
        <time>2015-12-17T18:21:20Z</time>
      </trkpt>
      <trkpt lat="48.39482" lon="7.26863">
        <ele>1091.12</ele>
        <time>2015-12-17T18:23:34Z</time>
      </trkpt>
      <trkpt lat="48.39493" lon="7.26887">
        <ele>1101.35</ele>
        <time>2015-12-17T18:25:02Z</time>
      </trkpt>
      <trkpt lat="48.39511" lon="7.2688">
        <ele>1091.8</ele>
        <time>2015-12-17T18:26:23Z</time>
      </trkpt>
      <trkpt lat="48.39529" lon="7.26877">
        <ele>1093.22</ele>
        <time>2015-12-17T18:26:45Z</time>
      </trkpt>
      <trkpt lat="48.39546" lon="7.26865">
        <ele>1091.33</ele>
        <time>2015-12-17T18:27:55Z</time>
      </trkpt>
      <trkpt lat="48.39565" lon="7.26875">
        <ele>1090.58</ele>
        <time>2015-12-17T18:28:19Z</time>
      </trkpt>
      <trkpt lat="48.39583" lon="7.26868">
        <ele>1089.44</ele>
        <time>2015-12-17T18:28:31Z</time>
      </trkpt>
      <trkpt lat="48.396" lon="7.26857">
        <ele>1095.96</ele>
        <time>2015-12-17T18:28:44Z</time>
      </trkpt>
      <trkpt lat="48.39619" lon="7.26851">
        <ele>1091.77</ele>
        <time>2015-12-17T18:29:04Z</time>
      </trkpt>
      <trkpt lat="48.39637" lon="7.26845">
        <ele>1084.27</ele>
        <time>2015-12-17T18:29:23Z</time>
      </trkpt>
      <trkpt lat="48.39655" lon="7.26839">
        <ele>1070.33</ele>
        <time>2015-12-17T18:29:52Z</time>
      </trkpt>
      <trkpt lat="48.39676" lon="7.26828">
        <ele>1070.58</ele>
        <time>2015-12-17T18:30:56Z</time>
      </trkpt>
      <trkpt lat="48.39696" lon="7.26823">
        <ele>1078.74</ele>
        <time>2015-12-17T18:31:11Z</time>
      </trkpt>
      <trkpt lat="48.397" lon="7.26795">
        <ele>1073.22</ele>
        <time>2015-12-17T18:31:41Z</time>
      </trkpt>
      <trkpt lat="48.39678" lon="7.26816">
        <ele>1069.58</ele>
        <time>2015-12-17T18:57:07Z</time>
      </trkpt>
      <trkpt lat="48.39712" lon="7.26787">
        <ele>1081.08</ele>
        <time>2015-12-17T19:15:07Z</time>
      </trkpt>
      <trkpt lat="48.39692" lon="7.26789">
        <ele>1093.08</ele>
        <time>2015-12-17T19:45:28Z</time>
      </trkpt>
      <trkpt lat="48.39718" lon="7.2679">
        <ele>1107.64</ele>
        <time>2015-12-17T19:51:28Z</time>
      </trkpt>
      <trkpt lat="48.39715" lon="7.26758">
        <ele>1091.89</ele>
        <time>2015-12-17T20:43:59Z</time>
      </trkpt>
      <trkpt lat="48.39723" lon="7.26733">
        <ele>1083.54</ele>
        <time>2015-12-17T20:44:10Z</time>
      </trkpt>
      <trkpt lat="48.39727" lon="7.26706">
        <ele>1088.88</ele>
        <time>2015-12-17T20:44:22Z</time>
      </trkpt>
      <trkpt lat="48.39732" lon="7.2668">
        <ele>1090.64</ele>
        <time>2015-12-17T20:45:56Z</time>
      </trkpt>
      <trkpt lat="48.39736" lon="7.26654">
        <ele>1087.71</ele>
        <time>2015-12-17T20:46:14Z</time>
      </trkpt>
      <trkpt lat="48.39746" lon="7.2663">
        <ele>1087.73</ele>
        <time>2015-12-17T20:48:08Z</time>
      </trkpt>
      <trkpt lat="48.39765" lon="7.26627">
        <ele>1086.29</ele>
        <time>2015-12-17T20:48:22Z</time>
      </trkpt>
      <trkpt lat="48.3978" lon="7.2661">
        <ele>1087.14</ele>
        <time>2015-12-17T20:48:41Z</time>
      </trkpt>
      <trkpt lat="48.39798" lon="7.26601">
        <ele>1085.43</ele>
        <time>2015-12-17T20:48:56Z</time>
      </trkpt>
      <trkpt lat="48.39814" lon="7.26589">
        <ele>1083.61</ele>
        <time>2015-12-17T20:49:21Z</time>
      </trkpt>
      <trkpt lat="48.39832" lon="7.2658">
        <ele>1080.02</ele>
        <time>2015-12-17T20:49:38Z</time>
      </trkpt>
      <trkpt lat="48.39847" lon="7.26561">
        <ele>1075.06</ele>
        <time>2015-12-17T20:50:00Z</time>
      </trkpt>
      <trkpt lat="48.39863" lon="7.26551">
        <ele>1082.41</ele>
        <time>2015-12-17T20:50:19Z</time>
      </trkpt>
      <trkpt lat="48.39875" lon="7.2653">
        <ele>1079.63</ele>
        <time>2015-12-17T20:50:39Z</time>
      </trkpt>
      <trkpt lat="48.39891" lon="7.26517">
        <ele>1081.94</ele>
        <time>2015-12-17T20:50:58Z</time>
      </trkpt>
      <trkpt lat="48.39908" lon="7.26503">
        <ele>1078.58</ele>
        <time>2015-12-17T20:51:18Z</time>
      </trkpt>
      <trkpt lat="48.39926" lon="7.265">
        <ele>1075.8</ele>
        <time>2015-12-17T20:51:34Z</time>
      </trkpt>
      <trkpt lat="48.39941" lon="7.26486">
        <ele>1079.96</ele>
        <time>2015-12-17T20:51:53Z</time>
      </trkpt>
      <trkpt lat="48.39978" lon="7.26452">
        <ele>1082.93</ele>
        <time>2015-12-17T20:52:34Z</time>
      </trkpt>
      <trkpt lat="48.39996" lon="7.26442">
        <ele>1077.72</ele>
        <time>2015-12-17T20:52:55Z</time>
      </trkpt>
      <trkpt lat="48.40012" lon="7.26429">
        <ele>1078.77</ele>
        <time>2015-12-17T20:53:11Z</time>
      </trkpt>
      <trkpt lat="48.40027" lon="7.26414">
        <ele>1076.14</ele>
        <time>2015-12-17T20:53:29Z</time>
      </trkpt>
      <trkpt lat="48.40044" lon="7.26403">
        <ele>1071.89</ele>
        <time>2015-12-17T20:53:47Z</time>
      </trkpt>
      <trkpt lat="48.4006" lon="7.26388">
        <ele>1073.34</ele>
        <time>2015-12-17T20:54:03Z</time>
      </trkpt>
      <trkpt lat="48.40076" lon="7.26375">
        <ele>1069.4</ele>
        <time>2015-12-17T20:54:22Z</time>
      </trkpt>
      <trkpt lat="48.40091" lon="7.26359">
        <ele>1066.59</ele>
        <time>2015-12-17T20:54:41Z</time>
      </trkpt>
      <trkpt lat="48.40107" lon="7.26345">
        <ele>1065.29</ele>
        <time>2015-12-17T20:54:59Z</time>
      </trkpt>
      <trkpt lat="48.40123" lon="7.2633">
        <ele>1064.21</ele>
        <time>2015-12-17T20:55:17Z</time>
      </trkpt>
      <trkpt lat="48.40141" lon="7.2632">
        <ele>1063.54</ele>
        <time>2015-12-17T20:55:37Z</time>
      </trkpt>
      <trkpt lat="48.40155" lon="7.26303">
        <ele>1059.94</ele>
        <time>2015-12-17T20:55:55Z</time>
      </trkpt>
      <trkpt lat="48.40173" lon="7.26295">
        <ele>1058.2</ele>
        <time>2015-12-17T20:56:14Z</time>
      </trkpt>
      <trkpt lat="48.40189" lon="7.26277">
        <ele>1058.06</ele>
        <time>2015-12-17T20:56:33Z</time>
      </trkpt>
      <trkpt lat="48.40205" lon="7.26263">
        <ele>1055.54</ele>
        <time>2015-12-17T20:56:54Z</time>
      </trkpt>
      <trkpt lat="48.40222" lon="7.26249">
        <ele>1052.8</ele>
        <time>2015-12-17T20:57:13Z</time>
      </trkpt>
      <trkpt lat="48.40237" lon="7.26235">
        <ele>1047.11</ele>
        <time>2015-12-17T20:57:32Z</time>
      </trkpt>
      <trkpt lat="48.40254" lon="7.26224">
        <ele>1047.58</ele>
        <time>2015-12-17T20:57:52Z</time>
      </trkpt>
      <trkpt lat="48.4027" lon="7.26209">
        <ele>1045.6</ele>
        <time>2015-12-17T20:58:11Z</time>
      </trkpt>
      <trkpt lat="48.40285" lon="7.26191">
        <ele>1046.58</ele>
        <time>2015-12-17T20:58:29Z</time>
      </trkpt>
      <trkpt lat="48.40297" lon="7.26169">
        <ele>1042.33</ele>
        <time>2015-12-17T20:58:49Z</time>
      </trkpt>
      <trkpt lat="48.40309" lon="7.26147">
        <ele>1042.69</ele>
        <time>2015-12-17T20:59:07Z</time>
      </trkpt>
      <trkpt lat="48.40319" lon="7.26125">
        <ele>1037.83</ele>
        <time>2015-12-17T20:59:27Z</time>
      </trkpt>
      <trkpt lat="48.40328" lon="7.261">
        <ele>1034.08</ele>
        <time>2015-12-17T20:59:45Z</time>
      </trkpt>
      <trkpt lat="48.40336" lon="7.26075">
        <ele>1031.59</ele>
        <time>2015-12-17T21:00:07Z</time>
      </trkpt>
      <trkpt lat="48.40344" lon="7.26051">
        <ele>1030.64</ele>
        <time>2015-12-17T21:00:23Z</time>
      </trkpt>
      <trkpt lat="48.40354" lon="7.26028">
        <ele>1032.3</ele>
        <time>2015-12-17T21:00:40Z</time>
      </trkpt>
      <trkpt lat="48.40369" lon="7.2601">
        <ele>1030.17</ele>
        <time>2015-12-17T21:00:57Z</time>
      </trkpt>
      <trkpt lat="48.40381" lon="7.2599">
        <ele>1026.08</ele>
        <time>2015-12-17T21:01:21Z</time>
      </trkpt>
      <trkpt lat="48.40385" lon="7.25963">
        <ele>1031.53</ele>
        <time>2015-12-17T21:01:38Z</time>
      </trkpt>
      <trkpt lat="48.40394" lon="7.2594">
        <ele>1018.44</ele>
        <time>2015-12-17T21:02:06Z</time>
      </trkpt>
      <trkpt lat="48.40403" lon="7.25915">
        <ele>1027.82</ele>
        <time>2015-12-17T21:02:59Z</time>
      </trkpt>
      <trkpt lat="48.40422" lon="7.25911">
        <ele>1020.94</ele>
        <time>2015-12-17T21:03:15Z</time>
      </trkpt>
      <trkpt lat="48.40435" lon="7.25885">
        <ele>1018.64</ele>
        <time>2015-12-17T21:03:53Z</time>
      </trkpt>
      <trkpt lat="48.40455" lon="7.25883">
        <ele>1022.34</ele>
        <time>2015-12-17T21:04:09Z</time>
      </trkpt>
      <trkpt lat="48.40473" lon="7.25882">
        <ele>1027.13</ele>
        <time>2015-12-17T21:04:23Z</time>
      </trkpt>
      <trkpt lat="48.4049" lon="7.25871">
        <ele>1029.21</ele>
        <time>2015-12-17T21:04:36Z</time>
      </trkpt>
      <trkpt lat="48.40511" lon="7.25862">
        <ele>1026.03</ele>
        <time>2015-12-17T21:04:56Z</time>
      </trkpt>
      <trkpt lat="48.40523" lon="7.25841">
        <ele>1025.5</ele>
        <time>2015-12-17T21:05:08Z</time>
      </trkpt>
      <trkpt lat="48.40541" lon="7.25834">
        <ele>1024.73</ele>
        <time>2015-12-17T21:05:28Z</time>
      </trkpt>
      <trkpt lat="48.40557" lon="7.25816">
        <ele>1022.25</ele>
        <time>2015-12-17T21:05:39Z</time>
      </trkpt>
      <trkpt lat="48.40576" lon="7.25814">
        <ele>1027.21</ele>
        <time>2015-12-17T21:06:02Z</time>
      </trkpt>
      <trkpt lat="48.40591" lon="7.25799">
        <ele>1029.25</ele>
        <time>2015-12-17T21:06:20Z</time>
      </trkpt>
      <trkpt lat="48.40607" lon="7.25814">
        <ele>1030.5</ele>
        <time>2015-12-17T21:06:33Z</time>
      </trkpt>
      <trkpt lat="48.40625" lon="7.25816">
        <ele>1020.93</ele>
        <time>2015-12-17T21:06:54Z</time>
      </trkpt>
      <trkpt lat="48.40643" lon="7.25808">
        <ele>1021.96</ele>
        <time>2015-12-17T21:07:10Z</time>
      </trkpt>
      <trkpt lat="48.40664" lon="7.258">
        <ele>1017.7</ele>
        <time>2015-12-17T21:07:30Z</time>
      </trkpt>
      <trkpt lat="48.40681" lon="7.25791">
        <ele>1013.8</ele>
        <time>2015-12-17T21:07:43Z</time>
      </trkpt>
      <trkpt lat="48.40685" lon="7.25765">
        <ele>1018.77</ele>
        <time>2015-12-17T21:08:00Z</time>
      </trkpt>
      <trkpt lat="48.40701" lon="7.25751">
        <ele>1013.76</ele>
        <time>2015-12-17T21:08:17Z</time>
      </trkpt>
      <trkpt lat="48.40719" lon="7.25743">
        <ele>1007.9</ele>
        <time>2015-12-17T21:08:41Z</time>
      </trkpt>
    </trkseg>
  </trk>
</gpx>